M I D A S
Marine Information and Data Acquisition System
Tripno 599 of the Zeeleeuw from 2003-09-26 07:01:59 to 2003-09-26 15:27:12
Back to CruiseResearch ActivitiesStationsMapUnderway DataData graphs

EquipmentUnitsComments
TimeDGPSUTC
LatitudeDGPSDM.mWGS84
LongitudeDGPSDM.mWGS84
SpeedMeteo Stationm/sRelative wind speed
DirectionMeteo StationdegRelative wind direction
TemperatureMeteo Stationdeg CelciusAir temperature
PressureMeteo StationPaAtmospheric pressure
HumidityMeteo Station%Relative humidity
Missing or incorrect values are displayed as -999
Metereological data collected by the RV Zeeleeuw from 2003-09-26 07:01:59 to 2003-09-26 15:27:12
Time Latitude Longitude Speed Direction Temperature Pressure Humidity
2003-09-26 07:03 51°13.7 2°55.77 1.1 143 10.1 101850 84
2003-09-26 07:04 51°13.7 2°55.75 0.6 136 10.3 101860 84
2003-09-26 07:05 51°13.73 2°55.75 0.8 65 10.5 101860 84
2003-09-26 07:06 51°13.79 2°55.67 2.3 353 10.6 101860 84
2003-09-26 07:07 51°13.9 2°55.58 3.8 360 10.8 101860 84
2003-09-26 07:08 51°14.02 2°55.5 6.6 357 11.4 101850 85
2003-09-26 07:09 51°14.14 2°55.41 9.9 347 12.3 101840 85
2003-09-26 07:10 51°14.25 2°55.27 10.4 358 13.2 101840 81
2003-09-26 07:11 51°14.35 2°55.08 10   14 101840 78
2003-09-26 07:11 51°14.45 2°54.88 13 356 14.6 101830 74
2003-09-26 07:13 51°14.59 2°54.7 11.8 343 15 101820 71
2003-09-26 07:14 51°14.76 2°54.59 13.2 343 15.2 101820 69
2003-09-26 07:15 51°14.93 2°54.49 13.3 344 15.3 101820 67
2003-09-26 07:16 51°15.1 2°54.4 12.3 340 15.4 101810 66
2003-09-26 07:17 51°15.27 2°54.4 11.2 330 15.4 101820 64
2003-09-26 07:18 51°15.44 2°54.44 11.7 331 15.5 101820 65
2003-09-26 07:19 51°15.61 2°54.43 11.2 335 15.6 101810 65
2003-09-26 07:20 51°15.79 2°54.39 12 328 15.6 101810 64
2003-09-26 07:21 51°15.95 2°54.28 12.8 343 15.6 101820 64
2003-09-26 07:22 51°16.06 2°54.15 9 41 15.6 101820 63
2003-09-26 07:23 51°16.13 2°54.18 7.4 294 15.7 101840 64
2003-09-26 07:24 51°16.17 2°54.21 7.3 282 15.7 101840 64
2003-09-26 07:25 51°16.21 2°54.25 6.2 295 15.7 101850 63
2003-09-26 07:26 51°16.24 2°54.27 6.3 297 15.8 101850 63
2003-09-26 07:27 51°16.24 2°54.26 6.3 287 15.8 101850 63
2003-09-26 07:28 51°16.24 2°54.24 6.9 294 15.9 101850 63
2003-09-26 07:29 51°16.23 2°54.22 6.1 277 15.9 101850 63
2003-09-26 07:30 51°16.27 2°54.16 10.9 344 15.8 101840 62
2003-09-26 07:31 51°16.4 2°53.95 12.7 351 15.9 101820 63
2003-09-26 07:32 51°16.54 2°53.68 12.9 358 15.8 101830 61
2003-09-26 07:33 51°16.68 2°53.41 12.1 354 15.8 101820 62
2003-09-26 07:34 51°16.82 2°53.13 13.4 360 15.8 101830 61
2003-09-26 07:35 51°16.96 2°52.88 11.5 349 15.8 101830 62
2003-09-26 07:36 51°17.1 2°52.6 11.9 352 15.8 101820 61
2003-09-26 07:37 51°17.24 2°52.35 13.1 348 15.7 101830 60
2003-09-26 07:38 51°17.41 2°52.11 11.7 349 15.7 101820 59
2003-09-26 07:39 51°17.57 2°51.88 12.1 342 15.8 101830 60
2003-09-26 07:40 51°17.73 2°51.65 13 348 15.8 101830 59
2003-09-26 07:41 51°17.9 2°51.43 13.5 346 15.8 101820 59
2003-09-26 07:42 51°18.07 2°51.22 12.2 346 15.8 101820 60
2003-09-26 07:43 51°18.25 2°51.04 10.2 334 15.9 101820 59
2003-09-26 07:44 51°18.38 2°50.95 8.3 318 15.8 101830 64
2003-09-26 07:45 51°18.46 2°50.95 5.4 265 15.8 101840 58
2003-09-26 07:46 51°18.49 2°51 5.4 264 15.8 101850 58
2003-09-26 07:47 51°18.49 2°51.01 5.3 264 15.8 101850 58
2003-09-26 07:48 51°18.49 2°50.99 6.1 272 15.9 101850 60
2003-09-26 07:49 51°18.48 2°50.97 7.3 273 16 101850 61
2003-09-26 07:50 51°18.47 2°50.95 6.8 272 15.9 101850 58
2003-09-26 07:51 51°18.46 2°50.93 7.2 273 15.9 101860 58
2003-09-26 07:52 51°18.51 2°50.95 6.9 306 15.9 101850 57
2003-09-26 07:53 51°18.64 2°51.11 6.6 310 15.9 101850 56
2003-09-26 07:54 51°18.74 2°51.37 3.8 315 15.9 101860 54
2003-09-26 07:55 51°18.83 2°51.64 4.4 301 16 101860 55
2003-09-26 07:56 51°18.93 2°51.92 4.2 314 16.1 101850 56
2003-09-26 07:57 51°19.03 2°52.19 4.6 228 16.1 101850 57
2003-09-26 07:58 51°19.13 2°52.47 6.1 320 16.2 101850 57
2003-09-26 07:59 51°19.2 2°52.76 4.7 305 16.1 101850 55
2003-09-26 08:00 51°19.27 2°53.05 3.3 308 16.1 101850 55
2003-09-26 08:01 51°19.33 2°53.34 4.9 43 16.2 101860 56
2003-09-26 08:02 51°19.41 2°53.63 4.6 309 16.2 101860 55
2003-09-26 08:03 51°19.47 2°53.93 4.3 307 16.2 101850 55
2003-09-26 08:04 51°19.54 2°54.22 4.2 306 16.2 101860 54
2003-09-26 08:05 51°19.62 2°54.51 2.5 300 16.3 101860 54
2003-09-26 08:06 51°19.69 2°54.8 3.5 324 16.3 101860 55
2003-09-26 08:07 51°19.74 2°55.1 4.5 306 16.4 101850 55
2003-09-26 08:08 51°19.8 2°55.41 3.6 310 16.4 101850 55
2003-09-26 08:09 51°19.85 2°55.71 2.7 227 16.4 101850 54
2003-09-26 08:10 51°19.9 2°56.01 4.7 311 16.4 101850 54
2003-09-26 08:11 51°19.96 2°56.32 3.7 311 16.5 101850 55
2003-09-26 08:12 51°20.01 2°56.62 3.3 324 16.5 101850 54
2003-09-26 08:13 51°20.07 2°56.93 3.3 327 16.5 101850 53
2003-09-26 08:14 51°20.13 2°57.23 3 314 16.5 101850 53
2003-09-26 08:15 51°20.18 2°57.54 3.2 316 16.5 101850 54
2003-09-26 08:16 51°20.24 2°57.85 2.1 318 16.5 101850 51
2003-09-26 08:17 51°20.29 2°58.15 1.6 319 16.5 101850 51
2003-09-26 08:18 51°20.35 2°58.46 3.2 312 16.6 101850 53
2003-09-26 08:19 51°20.4 2°58.76 2 309 16.6 101850 52
2003-09-26 08:20 51°20.46 2°59.07 1.9 318 16.7 101850 53
2003-09-26 08:21 51°20.51 2°59.37 2 326 16.7 101850 52
2003-09-26 08:22 51°20.57 2°59.68 3.4 314 16.8 101850 54
2003-09-26 08:23 51°20.63 2°59.99 2.9 300 16.8 101850 51
2003-09-26 08:24 51°20.68 3°0.3 4 325 16.9 101850 56
2003-09-26 08:25 51°20.74 3°0.61 3.8 314 16.9 101850 55
2003-09-26 08:26 51°20.79 3°0.92 3.9 325 16.8 101850 54
2003-09-26 08:27 51°20.84 3°1.24 3.6 328 16.8 101850 55
2003-09-26 08:28 51°20.9 3°1.56 3.3 330 16.7 101860 54
2003-09-26 08:29 51°20.95 3°1.88 2.8 328 16.7 101850 54
2003-09-26 08:30 51°21.02 3°2.18 3.5 314 16.8 101860 55
2003-09-26 08:31 51°21.08 3°2.5 2.7 303 16.7 101860 54
2003-09-26 08:32 51°21.14 3°2.81 3.5 309 16.8 101860 55
2003-09-26 08:33 51°21.21 3°3.11 4.1 315 16.7 101860 55
2003-09-26 08:34 51°21.27 3°3.42 3.8 302 16.7 101860 57
2003-09-26 08:35 51°21.33 3°3.74 3.8 300 16.7 101860 57
2003-09-26 08:36 51°21.4 3°4.05 3.3 302 16.7 101860 56
2003-09-26 08:37 51°21.46 3°4.35 4.2 290 16.7 101860 56
2003-09-26 08:38 51°21.53 3°4.66 4 297 16.7 101860 56
2003-09-26 08:39 51°21.59 3°4.98 3.9 304 16.7 101860 55
2003-09-26 08:40 51°21.65 3°5.29 3.8 228 16.6 101860 54
2003-09-26 08:41 51°21.72 3°5.6 3.7 327 16.7 101860 54
2003-09-26 08:42 51°21.78 3°5.91 3.5 228 16.6 101860 54
2003-09-26 08:43 51°21.85 3°6.22 3.6 313 16.6 101860 55
2003-09-26 08:44 51°21.91 3°6.54 3.5 297 16.6 101860 54
2003-09-26 08:45 51°21.95 3°6.87 2.9 304 16.6 101860 54
2003-09-26 08:46 51°21.98 3°7.2 2.3 331 16.6 101860 52
2003-09-26 08:47 51°22.02 3°7.53 2 229 16.7 101860 56
2003-09-26 08:48 51°22.06 3°7.85 2.2 320 16.8 101860 56
2003-09-26 08:49 51°22.1 3°8.18 1.7 326 16.8 101860 55
2003-09-26 08:50 51°22.13 3°8.52 1.2 338 16.8 101860 53
2003-09-26 08:51 51°22.17 3°8.85 1.8 344 16.8 101860 54
2003-09-26 08:52 51°22.21 3°9.19 2.4 337 16.8 101860 54
2003-09-26 08:53 51°22.24 3°9.53 2.3 345 16.9 101860 55
2003-09-26 08:54 51°22.28 3°9.87 3.4 309 16.9 101860 55
2003-09-26 08:55 51°22.32 3°10.2 2.7 286 16.9 101860 54
2003-09-26 08:56 51°22.36 3°10.53 3.5 293 16.9 101860 54
2003-09-26 08:57 51°22.38 3°10.87 1.2 328 16.9 101860 53
2003-09-26 08:58 51°22.39 3°11.21 1.6 292 16.9 101860 54
2003-09-26 08:59 51°22.39 3°11.55 1.7 299 16.9 101860 53
2003-09-26 09:00 51°22.4 3°11.89 1.5 297 17 101860 52
2003-09-26 09:01 51°22.41 3°12.24 2 310 17 101860 53
2003-09-26 09:02 51°22.43 3°12.59 1.9 314 17.1 101860 53
2003-09-26 09:03 51°22.44 3°12.93 1.5 280 17.1 101860 51
2003-09-26 09:04 51°22.52 3°13.14 4.6 281 17 101860 53
2003-09-26 09:05 51°22.6 3°13.24 7.2 273 16.9 101860 53
2003-09-26 09:06 51°22.6 3°13.25 7.4 270 16.8 101860 56
2003-09-26 09:07 51°22.6 3°13.25 7.1 271 16.8 101860 56
2003-09-26 09:08 51°22.6 3°13.25 5.2 258 16.7 101860 53
2003-09-26 09:09 51°22.6 3°13.26 5.7 270 16.6 101870 57
2003-09-26 09:10 51°22.6 3°13.26 6.8 275 16.5 101860 58
2003-09-26 09:11 51°22.69 3°13.32 8.2 299 16.5 101860 57
2003-09-26 09:12 51°22.85 3°13.52 5.5 303 16.5 101860 55
2003-09-26 09:13 51°23.02 3°13.74 7 301 16.5 101860 55
2003-09-26 09:14 51°23.18 3°13.97 5.9 305 16.5 101860 54
2003-09-26 09:15 51°23.34 3°14.2 4.9 227 16.5 101850 55
2003-09-26 09:16 51°23.5 3°14.43 4.1 302 16.5 101850 54
2003-09-26 09:17 51°23.66 3°14.67 4.7 308 16.5 101850 54
2003-09-26 09:18 51°23.82 3°14.9 5.9 310 16.6 101840 56
2003-09-26 09:19 51°23.98 3°15.14 5.4 227 16.5 101850 54
2003-09-26 09:20 51°24.14 3°15.38 5.2 310 16.5 101850 54
2003-09-26 09:21 51°24.31 3°15.63 4.9 309 16.5 101850 53
2003-09-26 09:22 51°24.47 3°15.88 5.8 306 16.5 101850 55
2003-09-26 09:23 51°24.64 3°16.12 5.5 314 16.5 101850 54
2003-09-26 09:24 51°24.8 3°16.37 4.7 309 16.6 101850 55
2003-09-26 09:25 51°24.97 3°16.63 4.4 295 16.6 101850 56
2003-09-26 09:26 51°25.13 3°16.88 6 308 16.6 101850 56
2003-09-26 09:27 51°25.28 3°17.15 4.7 299 16.6 101850 55
2003-09-26 09:28 51°25.42 3°17.42 4.7 300 16.7 101850 55
2003-09-26 09:29 51°25.57 3°17.69 3.2 307 16.6 101850 53
2003-09-26 09:30 51°25.71 3°17.94 4.7 302 16.7 101850 55
2003-09-26 09:31 51°25.85 3°18.02 7.5 313 16.7 101840 54
2003-09-26 09:32 51°25.95 3°17.94 8.4 323 16.7 101850 55
2003-09-26 09:33 51°25.98 3°17.86 7.1 341 16.7 101830 55
2003-09-26 09:34 51°25.96 3°17.79 7.7 44 16.6 101840 55
2003-09-26 09:35 51°25.91 3°17.77 6.6 90 16.5 101830 56
2003-09-26 09:36 51°25.89 3°17.79 5.5 99 16.3 101840 56
2003-09-26 09:37 51°25.88 3°17.81 6.2 100 16.4 101840 59
2003-09-26 09:38 51°25.86 3°17.83 6 111 16.3 101840 59
2003-09-26 09:39 51°25.84 3°17.86 5.8 95 16.3 101840 59
2003-09-26 09:40 51°25.8 3°17.87 7.8 51 16.4 101840 61
2003-09-26 09:41 51°25.72 3°17.77 12.5 10 16.3 101830 60
2003-09-26 09:42 51°25.66 3°17.52 12 7 16.2 101820 55
2003-09-26 09:43 51°25.62 3°17.27 11.8 9 16.3 101830 59
2003-09-26 09:44 51°25.58 3°17.03 11.4 6 16.2 101810 56
2003-09-26 09:45 51°25.55 3°16.78 13.1 8 16.3 101820 59
2003-09-26 09:46 51°25.52 3°16.53 11.4 6 16.2 101820 56
2003-09-26 09:47 51°25.5 3°16.28 12.3 9 16.2 101820 58
2003-09-26 09:48 51°25.46 3°16.04 12.2 7 16.1 101820 57
2003-09-26 09:49 51°25.44 3°15.79 12 9 16.1 101820 56
2003-09-26 09:50 51°25.42 3°15.54 11.9 354 16.1 101820 58
2003-09-26 09:51 51°25.4 3°15.29 12.6   16.2 101810 57
2003-09-26 09:52 51°25.39 3°15.04 12.1 357 16.2 101810 57
2003-09-26 09:53 51°25.37 3°14.79 12.2 357 16.2 101800 57
2003-09-26 09:53 51°25.35 3°14.55 12.1 5 16.2 101810 58
2003-09-26 09:55 51°25.34 3°14.29 12.9 345 16.2 101800 58
2003-09-26 09:56 51°25.33 3°14.04 13 346 16.3 101810 58
2003-09-26 09:57 51°25.32 3°13.8 12.9 357 16.3 101820 58
2003-09-26 09:58 51°25.31 3°13.55 12.6 358 16.3 101810 58
2003-09-26 09:59 51°25.3 3°13.3 12.5 350 16.4 101800 60
2003-09-26 10:00 51°25.29 3°13.05 11.9 350 16.4 101810 58
2003-09-26 10:01 51°25.28 3°12.8 13.2 351 16.4 101810 56
2003-09-26 10:01 51°25.27 3°12.56 14.4 355 16.3 101810 56
2003-09-26 10:03 51°25.26 3°12.31 13.3 349 16.3 101790 54
2003-09-26 10:04 51°25.28 3°12.08 12.4 335 16.4 101800 57
2003-09-26 10:05 51°25.37 3°11.89 11.3 324 16.3 101800 56
2003-09-26 10:06 51°25.46 3°11.7 10.9 327 16.3 101820 57
2003-09-26 10:07 51°25.55 3°11.51 12.6 323 16.3 101820 57
2003-09-26 10:08 51°25.63 3°11.32 12 320 16.3 101810 57
2003-09-26 10:09 51°25.72 3°11.13 11.2 319 16.2 101810 56
2003-09-26 10:10 51°25.8 3°10.95 13.3 326 16.2 101820 57
2003-09-26 10:11 51°25.89 3°10.76 12.5 328 16.2 101810 57
2003-09-26 10:12 51°25.95 3°10.55 11.4 347 16.2 101810 55
2003-09-26 10:13 51°25.99 3°10.33 12.8 339 16.2 101810 57
2003-09-26 10:14 51°26.04 3°10.11 12.2 342 16.2 101800 58
2003-09-26 10:15 51°26.09 3°9.88 12.7 334 16.2 101800 56
2003-09-26 10:16 51°26.14 3°9.66 12.5 340 16.2 101800 55
2003-09-26 10:17 51°26.19 3°9.44 13.6 326 16.2 101800 57
2003-09-26 10:18 51°26.24 3°9.21 12.5 343 16.2 101800 56
2003-09-26 10:19 51°26.29 3°8.99 13.4 338 16.2 101790 55
2003-09-26 10:20 51°26.33 3°8.76 12.5 333 16.2 101790 57
2003-09-26 10:21 51°26.38 3°8.53 14.1 335 16.2 101790 57
2003-09-26 10:22 51°26.44 3°8.35 10.8 337 16.1 101800 53
2003-09-26 10:23 51°26.44 3°8.3 8.5 333 16.1 101810 55
2003-09-26 10:24 51°26.42 3°8.3 9.5 299 16.1 101820 54
2003-09-26 10:25 51°26.41 3°8.31 9.3 265 16.2 101830 57
2003-09-26 10:26 51°26.4 3°8.32 7.5 256 16.1 101850 55
2003-09-26 10:27 51°26.39 3°8.33 9.5 258 16.1 101840 55
2003-09-26 10:28 51°26.37 3°8.34 9.9 265 16 101840 55
2003-09-26 10:29 51°26.36 3°8.36 8.3 273 16.1 101840 57
2003-09-26 10:30 51°26.36 3°8.33 10.5 324 16.1 101840 56
2003-09-26 10:31 51°26.42 3°8.07 13.2 341 16.1 101790 55
2003-09-26 10:32 51°26.51 3°7.76 13.6 338 16.2 101790 54
2003-09-26 10:33 51°26.61 3°7.46 12.7 337 16.1 101790 53
2003-09-26 10:34 51°26.71 3°7.17 14.3 330 16.2 101800 56
2003-09-26 10:35 51°26.82 3°6.88 13.2 334 16.2 101790 57
2003-09-26 10:36 51°26.93 3°6.59 14.1 338 16.2 101780 54
2003-09-26 10:37 51°27.03 3°6.3 12.6 334 16.1 101780 55
2003-09-26 10:38 51°27.15 3°6.02 12.4 339 16.2 101790 55
2003-09-26 10:39 51°27.27 3°5.73 12.1 333 16.2 101780 56
2003-09-26 10:40 51°27.38 3°5.45 14.7 332 16.1 101770 54
2003-09-26 10:41 51°27.5 3°5.17 13.5 339 16.1 101770 54
2003-09-26 10:42 51°27.62 3°4.89 14.8 342 16.1 101780 54
2003-09-26 10:43 51°27.74 3°4.62 13.9 338 16.1 101770 53
2003-09-26 10:44 51°27.86 3°4.34 13.9 339 16.1 101780 52
2003-09-26 10:45 51°27.99 3°4.06 14 343 16.1 101780 54
2003-09-26 10:46 51°28.12 3°3.79 13.2 341 16.1 101780 58
2003-09-26 10:47 51°28.24 3°3.57 10.5 320 16.1 101770 57
2003-09-26 10:48 51°28.31 3°3.53 7.5 276 16 101820 53
2003-09-26 10:49 51°28.31 3°3.54 4.6 251 16 101830 52
2003-09-26 10:50 51°28.3 3°3.56 5.3 242 16 101830 58
2003-09-26 10:51 51°28.3 3°3.58 5.7 254 16 101830 56
2003-09-26 10:52 51°28.3 3°3.6 5.1 254 16 101830 57
2003-09-26 10:53 51°28.3 3°3.62 6 257 16 101830 57
2003-09-26 10:54 51°28.3 3°3.65 8.7 263 16 101830 59
2003-09-26 10:55 51°28.32 3°3.63 8.7 328 15.9 101820 54
2003-09-26 10:55 51°28.33 3°3.43 11.8 9 15.9 101790 55
2003-09-26 10:57 51°28.25 3°3.17 13.7 10 16 101800 56
2003-09-26 10:58 51°28.16 3°2.86 13.9 4 16 101790 57
2003-09-26 10:59 51°28.08 3°2.53 14.1 3 15.9 101780 53
2003-09-26 11:00 51°28.01 3°2.19 14.5 2 15.8 101770 52
2003-09-26 11:01 51°27.94 3°1.86 15 19 15.9 101780 54
2003-09-26 11:02 51°27.86 3°1.52 15.5 11 15.9 101780 52
2003-09-26 11:03 51°27.79 3°1.18 14.4 11 15.9 101800 53
2003-09-26 11:04 51°27.73 3°0.85 15.6 10 15.9 101790 53
2003-09-26 11:05 51°27.67 3°0.5 13.6   15.9 101780 54
2003-09-26 11:06 51°27.61 3°0.15 13.9 359 16 101760 54
2003-09-26 11:07 51°27.56 2°59.83 15 7 16 101780 56
2003-09-26 11:08 51°27.51 2°59.49 15.2 5 15.9 101780 54
2003-09-26 11:09 51°27.45 2°59.14 14.7 8 15.9 101780 54
2003-09-26 11:10 51°27.4 2°58.81 15.6 5 15.9 101790 57
2003-09-26 11:11 51°27.35 2°58.48 13.4 15 15.8 101790 54
2003-09-26 11:12 51°27.29 2°58.14 14.4 7 15.8 101790 56
2003-09-26 11:13 51°27.24 2°57.8 14.6 5 15.8 101780 58
2003-09-26 11:14 51°27.18 2°57.46 14.2 12 15.9 101780 58
2003-09-26 11:15 51°27.14 2°57.14 15.3 9 15.8 101790 55
2003-09-26 11:16 51°27.09 2°56.8 14.5 16 15.8 101780 55
2003-09-26 11:17 51°27.04 2°56.48 14.4 13 15.9 101790 57
2003-09-26 11:18 51°26.99 2°56.16 14.2 6 15.9 101790 57
2003-09-26 11:19 51°26.95 2°55.82 14.2 8 15.8 101780 54
2003-09-26 11:20 51°26.9 2°55.48 15.8 8 15.8 101800 55
2003-09-26 11:21 51°26.86 2°55.16 13.7 12 15.8 101780 57
2003-09-26 11:22 51°26.81 2°54.82 14.2 8 15.9 101790 56
2003-09-26 11:23 51°26.77 2°54.51 15.8 1 15.9 101780 56
2003-09-26 11:24 51°26.73 2°54.18 14.5 9 15.8 101760 50
2003-09-26 11:25 51°26.69 2°53.86 14.3 8 15.8 101770 53
2003-09-26 11:26 51°26.65 2°53.54 13.4 12 15.9 101770 57
2003-09-26 11:27 51°26.6 2°53.22 15.3 9 15.9 101780 54
2003-09-26 11:28 51°26.56 2°52.9 14.4 10 15.8 101780 53
2003-09-26 11:29 51°26.52 2°52.58 14.5 3 15.9 101780 53
2003-09-26 11:30 51°26.48 2°52.25 16.1 6 15.9 101780 57
2003-09-26 11:31 51°26.44 2°51.94 14.5 5 15.9 101770 55
2003-09-26 11:32 51°26.4 2°51.62 15.4 1 15.8 101780 52
2003-09-26 11:33 51°26.35 2°51.29 13.2 10 15.9 101780 55
2003-09-26 11:34 51°26.31 2°50.99 15.2 9 15.9 101770 56
2003-09-26 11:35 51°26.27 2°50.67 14.9 10 15.9 101780 56
2003-09-26 11:36 51°26.23 2°50.36 14.6 10 15.9 101790 55
2003-09-26 11:37 51°26.19 2°50.05 15.6 12 15.9 101770 54
2003-09-26 11:38 51°26.16 2°49.73 14.1 9 15.9 101790 55
2003-09-26 11:39 51°26.12 2°49.41 14.8 15 16 101780 55
2003-09-26 11:40 51°26.08 2°49.09 13.5 18 16 101780 54
2003-09-26 11:41 51°26.05 2°48.86 11.6 12 15.9 101790 53
2003-09-26 11:42 51°26.03 2°48.69 11.7 5 16 101800 55
2003-09-26 11:43 51°26.02 2°48.59 8.7 24 15.9 101800 52
2003-09-26 11:44 51°26 2°48.54 9.2 24 16 101800 57
2003-09-26 11:45 51°25.99 2°48.53 7.9 15 16.1 101800 57
2003-09-26 11:46 51°26 2°48.56 6.5 17 15.9 101810 49
2003-09-26 11:47 51°26.01 2°48.6 8 34 16 101800 51
2003-09-26 11:48 51°26.01 2°48.65 6 70 15.9 101790 51
2003-09-26 11:49 51°26.02 2°48.7 8.8 92 16 101800 57
2003-09-26 11:50 51°26 2°48.73 9.2 48 15.9 101800 55
2003-09-26 11:51 51°25.92 2°48.55 13.2 24 15.9 101780 56
2003-09-26 11:52 51°25.84 2°48.28 14.4 19 16 101780 55
2003-09-26 11:53 51°25.77 2°47.98 15.4 19 16.1 101770 55
2003-09-26 11:54 51°25.7 2°47.69 14 14 16 101790 53
2003-09-26 11:55 51°25.63 2°47.39 15 16 16.1 101780 56
2003-09-26 11:56 51°25.56 2°47.09 14.4 19 16.1 101780 55
2003-09-26 11:57 51°25.49 2°46.8 15 16 16.1 101780 55
2003-09-26 11:58 51°25.42 2°46.5 13.9 21 16.1 101780 56
2003-09-26 11:59 51°25.35 2°46.22 15.9 14 16.1 101780 54
2003-09-26 12:00 51°25.28 2°45.93 14.4 13 16 101790 53
2003-09-26 12:01 51°25.22 2°45.64 14.8 12 16 101780 54
2003-09-26 12:02 51°25.15 2°45.36 14.2 17 16 101770 54
2003-09-26 12:03 51°25.08 2°45.06 14.8 25 15.9 101790 55
2003-09-26 12:04 51°25.01 2°44.76 13.6 20 16 101770 55
2003-09-26 12:05 51°24.94 2°44.47 14 14 16 101770 58
2003-09-26 12:06 51°24.87 2°44.18 13.4 12 16 101780 56
2003-09-26 12:07 51°24.8 2°43.89 13.9 20 16 101790 58
2003-09-26 12:08 51°24.73 2°43.6 14.1 21 16 101770 56
2003-09-26 12:09 51°24.67 2°43.31 12.8 13 16 101780 57
2003-09-26 12:10 51°24.59 2°43 15.9 15 16 101780 58
2003-09-26 12:11 51°24.53 2°42.71 14.4 16 16 101780 57
2003-09-26 12:12 51°24.46 2°42.43 15.1 17 15.9 101780 56
2003-09-26 12:13 51°24.39 2°42.13 13.8 18 15.9 101780 56
2003-09-26 12:14 51°24.33 2°41.85 15.1 20 15.9 101780 58
2003-09-26 12:15 51°24.26 2°41.55 14.6 14 15.9 101780 58
2003-09-26 12:16 51°24.2 2°41.27 13.8 18 15.8 101780 57
2003-09-26 12:17 51°24.13 2°40.98 15.8 17 15.9 101780 59
2003-09-26 12:18 51°24.06 2°40.67 13.7 14 15.8 101780 58
2003-09-26 12:19 51°24 2°40.39 14.6 16 15.8 101780 58
2003-09-26 12:20 51°23.93 2°40.09 15.6 19 15.9 101780 59
2003-09-26 12:21 51°23.86 2°39.79 15 16 15.9 101780 58
2003-09-26 12:22 51°23.79 2°39.5 13.8 19 15.8 101780 58
2003-09-26 12:23 51°23.7 2°39.2 14.7 16 15.8 101780 57
2003-09-26 12:24 51°23.63 2°38.92 15.1 9 15.8 101790 60
2003-09-26 12:25 51°23.55 2°38.63 13.6 16 15.8 101780 58
2003-09-26 12:26 51°23.47 2°38.35 14.7 14 15.8 101780 61
2003-09-26 12:27 51°23.39 2°38.06 15.5 21 15.8 101780 60
2003-09-26 12:28 51°23.31 2°37.76 14.9 15 15.8 101780 60
2003-09-26 12:29 51°23.22 2°37.49 13.3 20 15.7 101780 59
2003-09-26 12:30 51°23.12 2°37.21 13.8 22 15.8 101780 59
2003-09-26 12:31 51°23.02 2°36.94 13.8 22 15.8 101770 60
2003-09-26 12:32 51°22.92 2°36.67 13.6 23 15.8 101770 59
2003-09-26 12:33 51°22.81 2°36.4 14.6 18 15.8 101770 60
2003-09-26 12:34 51°22.72 2°36.14 15 22 15.8 101780 61
2003-09-26 12:35 51°22.62 2°35.87 14 20 15.7 101770 59
2003-09-26 12:36 51°22.52 2°35.61 13 22 15.8 101770 59
2003-09-26 12:37 51°22.42 2°35.34 13.5 19 15.8 101780 60
2003-09-26 12:38 51°22.32 2°35.07 13.3 21 15.8 101770 59
2003-09-26 12:39 51°22.23 2°34.81 14 20 15.7 101780 59
2003-09-26 12:40 51°22.12 2°34.54 13.5 22 15.8 101780 61
2003-09-26 12:41 51°22.02 2°34.28 13.9 24 15.8 101780 61
2003-09-26 12:42 51°21.92 2°34.02 13.3 25 15.8 101790 61
2003-09-26 12:43 51°21.81 2°33.75 14.3 18 15.8 101780 60
2003-09-26 12:44 51°21.7 2°33.48 14.4 22 15.8 101780 61
2003-09-26 12:45 51°21.6 2°33.21 13.7 18 15.8 101770 60
2003-09-26 12:46 51°21.49 2°32.94 14.3 17 15.8 101780 61
2003-09-26 12:47 51°21.38 2°32.68 12.8 20 15.7 101790 59
2003-09-26 12:48 51°21.28 2°32.42 15.2 27 15.7 101790 61
2003-09-26 12:49 51°21.17 2°32.16 12.5 23 15.7 101780 59
2003-09-26 12:50 51°21.04 2°31.9 14.2 27 15.7 101780 60
2003-09-26 12:51 51°20.93 2°31.66 14.3 20 15.7 101780 60
2003-09-26 12:52 51°20.81 2°31.42 11.6 22 15.7 101780 60
2003-09-26 12:53 51°20.69 2°31.19 13.7 32 15.7 101790 60
2003-09-26 12:54 51°20.57 2°30.95 12.1 25 15.7 101790 60
2003-09-26 12:55 51°20.45 2°30.71 10.9 24 15.8 101780 62
2003-09-26 12:56 51°20.33 2°30.48 14 24 15.8 101770 61
2003-09-26 12:57 51°20.24 2°30.32 9.9 32 15.8 101780 60
2003-09-26 12:58 51°20.18 2°30.21 9.7 33 15.7 101800 59
2003-09-26 12:59 51°20.08 2°30.06 11.2 33 15.7 101790 61
2003-09-26 13:00 51°20.04 2°29.97 5.4 16 15.6 101800 59
2003-09-26 13:01 51°20.05 2°30.01 5.3 344 15.6 101810 59
2003-09-26 13:02 51°20.07 2°30.06 4.1 228 15.6 101810 59
2003-09-26 13:03 51°20.09 2°30.12 5.4 284 15.7 101810 60
2003-09-26 13:04 51°20.12 2°30.19 5.1 289 15.8 101810 61
2003-09-26 13:05 51°20.17 2°30.28 3.4 267 15.8 101820 60
2003-09-26 13:06 51°20.17 2°30.52 4.7 56 15.8 101820 60
2003-09-26 13:07 51°20.03 2°30.83 6.8 54 15.9 101810 62
2003-09-26 13:08 51°19.89 2°31.13 6.2 53 15.8 101810 61
2003-09-26 13:09 51°19.73 2°31.42 6.4 47 15.8 101810 62
2003-09-26 13:10 51°19.58 2°31.71 5.9 53 15.7 101810 62
2003-09-26 13:11 51°19.43 2°32 6.3 52 15.7 101810 62
2003-09-26 13:12 51°19.29 2°32.28 6.7 53 15.7 101810 62
2003-09-26 13:13 51°19.15 2°32.58 4.7 63 15.6 101810 60
2003-09-26 13:14 51°19 2°32.88 6.1 51 15.6 101820 60
2003-09-26 13:15 51°18.87 2°33.16 6.7 57 15.6 101810 61
2003-09-26 13:16 51°18.72 2°33.45 6.9 56 15.6 101810 61
2003-09-26 13:17 51°18.58 2°33.75 5.3 67 15.7 101810 61
2003-09-26 13:18 51°18.44 2°34.04 4.6 57 15.7 101810 64
2003-09-26 13:19 51°18.29 2°34.33 5.3 59 15.8 101810 64
2003-09-26 13:20 51°18.12 2°34.61 6.2 48 15.8 101810 63
2003-09-26 13:21 51°17.96 2°34.89 6.3 54 15.8 101810 63
2003-09-26 13:22 51°17.81 2°35.15 6.9 62 15.8 101800 62
2003-09-26 13:23 51°17.64 2°35.42 5.8 67 15.7 101800 60
2003-09-26 13:24 51°17.47 2°35.69 7.1 67 15.8 101810 61
2003-09-26 13:25 51°17.3 2°35.95 5.8 65 15.8 101800 60
2003-09-26 13:26 51°17.13 2°36.19 7.5 62 15.9 101800 61
2003-09-26 13:27 51°16.97 2°36.45 6.9 70 15.9 101800 61
2003-09-26 13:28 51°16.8 2°36.68 8.4 64 15.9 101800 60
2003-09-26 13:29 51°16.69 2°36.75 9.9 47 15.9 101810 60
2003-09-26 13:30 51°16.65 2°36.73 6.7 30 15.9 101810 59
2003-09-26 13:31 51°16.65 2°36.74 7.7 35 16 101820 62
2003-09-26 13:32 51°16.65 2°36.77 6.8 30 16 101810 61
2003-09-26 13:33 51°16.66 2°36.8 6.9 42 16 101810 57
2003-09-26 13:34 51°16.67 2°36.85 7.4 45 16 101810 60
2003-09-26 13:35 51°16.68 2°36.89 7 77 16 101810 62
2003-09-26 13:36 51°16.69 2°36.95 6.9 90 16 101810 61
2003-09-26 13:37 51°16.7 2°37.01 6.8 97 16 101810 60
2003-09-26 13:38 51°16.71 2°37.06 7.8 106 16 101810 58
2003-09-26 13:39 51°16.73 2°37.12 6.7 106 16 101810 59
2003-09-26 13:40 51°16.74 2°37.18 6.9 107 16 101820 58
2003-09-26 13:41 51°16.74 2°37.24 8.1 125 16.1 101810 60
2003-09-26 13:42 51°16.73 2°37.33 6.5 105 16.2 101810 61
2003-09-26 13:43 51°16.66 2°37.28 11 8 16.1 101810 57
2003-09-26 13:44 51°16.65 2°37.11 12.2 17 16 101800 57
2003-09-26 13:45 51°16.61 2°36.88 12.8 12 16.1 101800 57
2003-09-26 13:46 51°16.59 2°36.79 6.4 74 16.1 101810 59
2003-09-26 13:47 51°16.59 2°36.84 7.3 109 16.1 101810 60
2003-09-26 13:48 51°16.59 2°36.9 7.3 123 16.1 101820 60
2003-09-26 13:49 51°16.6 2°36.95 7 115 16.1 101820 58
2003-09-26 13:50 51°16.61 2°37.01 6.6 92 16.1 101820 59
2003-09-26 13:51 51°16.62 2°37.06 7.6 86 16 101820 60
2003-09-26 13:52 51°16.54 2°37.13 6.8 78 16 101820 58
2003-09-26 13:53 51°16.37 2°37.28 7.8 77 16 101810 61
2003-09-26 13:54 51°16.18 2°37.44 8.8 62 16 101810 62
2003-09-26 13:55 51°15.98 2°37.57 8.8 51 16 101810 61
2003-09-26 13:56 51°15.79 2°37.71 10.8 57 16 101810 61
2003-09-26 13:57 51°15.58 2°37.86 9.7 61 15.9 101800 58
2003-09-26 13:58 51°15.37 2°38.01 10.5 58 15.9 101800 59
2003-09-26 13:59 51°15.18 2°38.14 10.4 62 15.9 101790 58
2003-09-26 14:00 51°14.97 2°38.29 9.7 65 16 101800 57
2003-09-26 14:01 51°14.77 2°38.42 7.7 71 15.9 101810 59
2003-09-26 14:02 51°14.56 2°38.57 8.1 70 15.9 101800 59
2003-09-26 14:03 51°14.36 2°38.71 9.4 66 16 101810 59
2003-09-26 14:04 51°14.16 2°38.83 9.5 56 15.9 101800 60
2003-09-26 14:05 51°13.94 2°38.82 13.5 40 15.9 101790 60
2003-09-26 14:06 51°13.74 2°38.74 13.2 40 15.9 101790 60
2003-09-26 14:07 51°13.54 2°38.65 12.6 47 16 101790 61
2003-09-26 14:08 51°13.33 2°38.56 12.1 45 16 101780 62
2003-09-26 14:09 51°13.13 2°38.48 12.2 52 15.9 101780 61
2003-09-26 14:10 51°12.93 2°38.39 11.4 44 15.9 101780 60
2003-09-26 14:11 51°12.73 2°38.28 12.5 40 15.9 101780 59
2003-09-26 14:12 51°12.53 2°38.17 11.2 47 15.9 101780 60
2003-09-26 14:13 51°12.34 2°38.06 12.7 38 15.9 101780 60
2003-09-26 14:14 51°12.15 2°37.95 11.7 38 15.9 101790 61
2003-09-26 14:15 51°11.95 2°37.82 12 47 15.9 101790 60
2003-09-26 14:16 51°11.77 2°37.71 13.5 43 15.9 101780 58
2003-09-26 14:17 51°11.57 2°37.58 12.5 41 15.9 101790 60
2003-09-26 14:18 51°11.38 2°37.47 12.9 46 15.9 101790 61
2003-09-26 14:19 51°11.18 2°37.34 14.3 38 16 101790 60
2003-09-26 14:20 51°11 2°37.2 13 46 15.9 101780 59
2003-09-26 14:21 51°10.81 2°37.05 12.2 51 15.9 101780 60
2003-09-26 14:22 51°10.62 2°36.92 12.7 51 15.9 101780 60
2003-09-26 14:23 51°10.43 2°36.86 11.1 60 16 101790 64
2003-09-26 14:24 51°10.23 2°36.99 6.7 80 15.9 101800 59
2003-09-26 14:25 51°10.1 2°37.28 1.2 94 15.9 101820 61
2003-09-26 14:26 51°10.14 2°37.67 3.1 291 16 101820 60
2003-09-26 14:27 51°10.24 2°38.01 4.1 301 16 101820 60
2003-09-26 14:28 51°10.34 2°38.38 3.7 295 16.1 101820 59
2003-09-26 14:29 51°10.43 2°38.74 2.8 285 16.1 101820 59
2003-09-26 14:30 51°10.52 2°39.11 3.5 299 16.2 101820 58
2003-09-26 14:31 51°10.6 2°39.48 4.1 276 16.3 101820 59
2003-09-26 14:32 51°10.69 2°39.85 3.2 293 16.3 101820 59
2003-09-26 14:33 51°10.78 2°40.21 3.6 297 16.4 101820 61
2003-09-26 14:34 51°10.86 2°40.58 2.5 296 16.3 101810 59
2003-09-26 14:35 51°10.94 2°40.96 2.6 311 16.4 101820 58
2003-09-26 14:36 51°11.01 2°41.33 2 274 16.5 101820 59
2003-09-26 14:37 51°11.06 2°41.71 1.4 310 16.5 101820 59
2003-09-26 14:38 51°11.09 2°41.98 4.1 167 16.6 101810 60
2003-09-26 14:39 51°11.09 2°42.06 8.8 167 16.6 101810 59
2003-09-26 14:40 51°11.1 2°42.08 7.9 152 16.4 101800 60
2003-09-26 14:41 51°11.12 2°42.11 8 145 16.3 101800 60
2003-09-26 14:42 51°11.13 2°42.14 7.2 150 16.2 101800 59
2003-09-26 14:43 51°11.14 2°42.18 7.7 140 16.1 101800 62
2003-09-26 14:44 51°11.11 2°42.34 3.6 146 16.1 101810 61
2003-09-26 14:45 51°11.13 2°42.67 2.3 274 16 101810 60
2003-09-26 14:46 51°11.19 2°43.06 2.6 271 16.1 101820 58
2003-09-26 14:47 51°11.28 2°43.42 1.5 284 16.1 101810 59
2003-09-26 14:48 51°11.36 2°43.77 1.5 270 16.2 101810 59
2003-09-26 14:49 51°11.43 2°44.13 3.2 280 16.3 101810 59
2003-09-26 14:50 51°11.51 2°44.49 4 279 16.4 101810 60
2003-09-26 14:51 51°11.59 2°44.86 3.7 269 16.4 101820 57
2003-09-26 14:52 51°11.67 2°45.23 3.1 282 16.4 101810 59
2003-09-26 14:53 51°11.74 2°45.59 2.4 267 16.3 101810 58
2003-09-26 14:54 51°11.82 2°45.96 2.2 270 16.4 101810 59
2003-09-26 14:55 51°11.9 2°46.32 2.7 306 16.4 101810 58
2003-09-26 14:56 51°11.97 2°46.68 2.8 298 16.4 101810 58
2003-09-26 14:57 51°12.07 2°47.05 3 278 16.4 101810 58
2003-09-26 14:58 51°12.17 2°47.4 3.2 285 16.4 101810 57
2003-09-26 14:59 51°12.27 2°47.74 3.6 299 16.5 101810 57
2003-09-26 15:00 51°12.37 2°48.09 3.2 298 16.5 101810 57
2003-09-26 15:01 51°12.47 2°48.43 4.2 305 16.5 101820 58
2003-09-26 15:02 51°12.57 2°48.77 2.9 277 16.4 101810 57
2003-09-26 15:03 51°12.68 2°49.12 1.4 288 16.4 101810 58
2003-09-26 15:04 51°12.78 2°49.47 2.9 298 16.4 101810 57
2003-09-26 15:05 51°12.88 2°49.83 2.2 281 16.4 101810 58
2003-09-26 15:06 51°12.98 2°50.16 3.9 292 16.4 101810 59
2003-09-26 15:07 51°13.08 2°50.5 4.3 286 16.4 101820 57
2003-09-26 15:08 51°13.19 2°50.86 2.7 294 16.4 101820 57
2003-09-26 15:09 51°13.3 2°51.2 3.4 286 16.5 101810 58
2003-09-26 15:10 51°13.41 2°51.53 3.2 311 16.5 101810 57
2003-09-26 15:11 51°13.53 2°51.85 2.7 288 16.6 101820 58
2003-09-26 15:12 51°13.65 2°52.19 2.3 281 16.6 101810 56
2003-09-26 15:13 51°13.77 2°52.52 2.7 275 16.6 101810 56
2003-09-26 15:14 51°13.87 2°52.84 3.4 265 16.7 101810 55
2003-09-26 15:15 51°13.98 2°53.17 2.3 258 16.6 101820 55
2003-09-26 15:16 51°14.05 2°53.38 3.9 235 16.5 101820 56
2003-09-26 15:17 51°14.1 2°53.56 5 220 16.5 101810 59
2003-09-26 15:18 51°14.15 2°53.7 4.4 217 16.4 101820 56
2003-09-26 15:19 51°14.19 2°53.82 5.3 211 16.3 101810 57
2003-09-26 15:20 51°14.23 2°53.93 5.1 217 16.2 101820 57
2003-09-26 15:21 51°14.26 2°54.04 5 224 16.1 101820 57
2003-09-26 15:22 51°14.3 2°54.15 4.3 218 16.1 101820 58
2003-09-26 15:23 51°14.33 2°54.3 2.7 231 16.1 101820 59
2003-09-26 15:24 51°14.37 2°54.57 1 99 16.3 101820 62
2003-09-26 15:25 51°14.38 2°54.87 1.5 149 16.4 101820 62
2003-09-26 15:26 51°14.32 2°55.16 4 83 16.5 101820 61
2003-09-26 15:27 51°14.22 2°55.33 5.4 95 16.4 101820 61